sensor_id;sensor_type;location;lat;lon;timestamp;pressure;altitude;pressure_sealevel;temperature;humidity
77702;BME280;66868;42.708;23.404;2023-03-24T00:02:18;95267.63;;;8.49;82.56
77702;BME280;66868;42.708;23.404;2023-03-24T00:04:47;95259.19;;;8.50;83.09
77702;BME280;66868;42.708;23.404;2023-03-24T00:07:17;95252.66;;;8.46;82.37
77702;BME280;66868;42.708;23.404;2023-03-24T00:09:46;95238.25;;;8.30;82.39
77702;BME280;66868;42.708;23.404;2023-03-24T00:12:41;95255.25;;;8.25;82.10
77702;BME280;66868;42.708;23.404;2023-03-24T00:15:19;95242.69;;;8.07;81.61
77702;BME280;66868;42.708;23.404;2023-03-24T00:17:46;95250.69;;;7.97;82.96
77702;BME280;66868;42.708;23.404;2023-03-24T00:20:15;95240.41;;;7.83;83.15
77702;BME280;66868;42.708;23.404;2023-03-24T00:22:49;95248.66;;;7.87;83.19
77702;BME280;66868;42.708;23.404;2023-03-24T00:25:25;95265.81;;;7.97;83.70
77702;BME280;66868;42.708;23.404;2023-03-24T00:27:57;95204.56;;;7.60;83.84
77702;BME280;66868;42.708;23.404;2023-03-24T00:30:22;95250.84;;;7.94;84.14
77702;BME280;66868;42.708;23.404;2023-03-24T00:32:49;95250.91;;;7.93;83.91
77702;BME280;66868;42.708;23.404;2023-03-24T00:35:16;95259.94;;;7.97;83.30
77702;BME280;66868;42.708;23.404;2023-03-24T00:37:42;95261.59;;;7.98;83.43
77702;BME280;66868;42.708;23.404;2023-03-24T00:40:12;95256.69;;;7.95;83.41
77702;BME280;66868;42.708;23.404;2023-03-24T00:42:39;95254.91;;;7.97;83.69
77702;BME280;66868;42.708;23.404;2023-03-24T00:45:06;95250.63;;;7.99;83.63
77702;BME280;66868;42.708;23.404;2023-03-24T00:47:34;95245.72;;;7.96;83.09
77702;BME280;66868;42.708;23.404;2023-03-24T00:50:08;95243.41;;;7.91;83.06
77702;BME280;66868;42.708;23.404;2023-03-24T00:52:34;95248.53;;;7.90;82.47
77702;BME280;66868;42.708;23.404;2023-03-24T00:55:01;95247.16;;;7.83;81.27
77702;BME280;66868;42.708;23.404;2023-03-24T00:57:28;95230.22;;;7.68;81.23
77702;BME280;66868;42.708;23.404;2023-03-24T00:59:59;95234.31;;;7.51;80.84
77702;BME280;66868;42.708;23.404;2023-03-24T01:02:31;95241.72;;;7.17;83.14
77702;BME280;66868;42.708;23.404;2023-03-24T01:04:59;95232.13;;;7.06;83.72
77702;BME280;66868;42.708;23.404;2023-03-24T01:07:27;95233.00;;;7.05;84.10
77702;BME280;66868;42.708;23.404;2023-03-24T01:09:55;95238.72;;;7.09;84.60
77702;BME280;66868;42.708;23.404;2023-03-24T01:14:49;95223.63;;;6.50;87.22
77702;BME280;66868;42.708;23.404;2023-03-24T01:17:15;95237.88;;;6.70;85.83
77702;BME280;66868;42.708;23.404;2023-03-24T01:19:40;95239.38;;;6.53;86.39
77702;BME280;66868;42.708;23.404;2023-03-24T01:22:07;95231.34;;;6.45;85.21
77702;BME280;66868;42.708;23.404;2023-03-24T01:24:32;95230.75;;;6.39;86.34
77702;BME280;66868;42.708;23.404;2023-03-24T01:26:58;95226.94;;;6.30;86.09
77702;BME280;66868;42.708;23.404;2023-03-24T01:29:23;95232.22;;;6.24;86.36
77702;BME280;66868;42.708;23.404;2023-03-24T01:31:49;95227.44;;;6.18;86.51
77702;BME280;66868;42.708;23.404;2023-03-24T01:34:14;95231.81;;;6.13;87.19
77702;BME280;66868;42.708;23.404;2023-03-24T01:36:40;95232.81;;;6.09;87.50
77702;BME280;66868;42.708;23.404;2023-03-24T01:39:05;95222.13;;;6.04;87.39
77702;BME280;66868;42.708;23.404;2023-03-24T01:41:36;95235.16;;;5.92;88.58
77702;BME280;66868;42.708;23.404;2023-03-24T01:44:23;95230.47;;;5.83;88.21
77702;BME280;66868;42.708;23.404;2023-03-24T01:46:49;95235.59;;;5.79;88.97
77702;BME280;66868;42.708;23.404;2023-03-24T01:49:15;95220.00;;;5.71;88.91
77702;BME280;66868;42.708;23.404;2023-03-24T01:51:44;95213.38;;;5.47;89.78
77702;BME280;66868;42.708;23.404;2023-03-24T01:54:25;95240.47;;;5.39;91.74
77702;BME280;66868;42.708;23.404;2023-03-24T01:56:59;95235.31;;;5.42;91.12
77702;BME280;66868;42.708;23.404;2023-03-24T01:59:29;95212.97;;;5.36;90.61
77702;BME280;66868;42.708;23.404;2023-03-24T02:01:56;95232.06;;;5.40;91.52
77702;BME280;66868;42.708;23.404;2023-03-24T02:04:37;95227.59;;;5.25;92.45
77702;BME280;66868;42.708;23.404;2023-03-24T02:07:16;95230.97;;;5.24;91.94
77702;BME280;66868;42.708;23.404;2023-03-24T02:09:43;95240.59;;;5.36;91.94
77702;BME280;66868;42.708;23.404;2023-03-24T02:12:09;95238.00;;;5.38;91.65
77702;BME280;66868;42.708;23.404;2023-03-24T02:14:34;95234.44;;;5.43;91.11
77702;BME280;66868;42.708;23.404;2023-03-24T02:19:58;95244.16;;;5.52;91.60
77702;BME280;66868;42.708;23.404;2023-03-24T02:40:02;95236.63;;;5.74;90.75
77702;BME280;66868;42.708;23.404;2023-03-24T02:53:14;95221.00;;;6.11;87.68
77702;BME280;66868;42.708;23.404;2023-03-24T02:55:55;95212.81;;;6.06;86.95
77702;BME280;66868;42.708;23.404;2023-03-24T02:58:35;95212.56;;;6.12;86.33
77702;BME280;66868;42.708;23.404;2023-03-24T03:01:07;95208.78;;;6.02;86.87
77702;BME280;66868;42.708;23.404;2023-03-24T03:03:39;95206.88;;;6.08;86.55
77702;BME280;66868;42.708;23.404;2023-03-24T03:08:35;95218.69;;;6.27;86.08
77702;BME280;66868;42.708;23.404;2023-03-24T03:11:04;95209.31;;;6.30;85.98
77702;BME280;66868;42.708;23.404;2023-03-24T03:13:41;95205.69;;;6.37;85.40
77702;BME280;66868;42.708;23.404;2023-03-24T03:16:13;95219.09;;;6.38;86.08
77702;BME280;66868;42.708;23.404;2023-03-24T03:18:47;95212.44;;;6.37;84.98
77702;BME280;66868;42.708;23.404;2023-03-24T03:21:16;95219.78;;;6.41;84.98
77702;BME280;66868;42.708;23.404;2023-03-24T03:23:57;95224.66;;;6.44;84.95
77702;BME280;66868;42.708;23.404;2023-03-24T03:26:25;95217.25;;;6.41;85.02
77702;BME280;66868;42.708;23.404;2023-03-24T03:28:56;95158.94;;;6.13;84.55
77702;BME280;66868;42.708;23.404;2023-03-24T03:31:30;95194.69;;;6.40;85.41
77702;BME280;66868;42.708;23.404;2023-03-24T03:34:27;95202.69;;;6.49;84.64
77702;BME280;66868;42.708;23.404;2023-03-24T03:40:01;95195.50;;;6.40;84.79
77702;BME280;66868;42.708;23.404;2023-03-24T03:42:29;95200.78;;;6.34;85.01
77702;BME280;66868;42.708;23.404;2023-03-24T03:44:55;95216.75;;;6.33;85.31
77702;BME280;66868;42.708;23.404;2023-03-24T03:47:20;95206.19;;;6.25;84.96
77702;BME280;66868;42.708;23.404;2023-03-24T03:49:47;95207.97;;;6.23;85.20
77702;BME280;66868;42.708;23.404;2023-03-24T03:52:13;95211.78;;;6.32;85.12
77702;BME280;66868;42.708;23.404;2023-03-24T03:54:40;95213.47;;;6.31;85.62
77702;BME280;66868;42.708;23.404;2023-03-24T03:57:07;95189.69;;;6.19;85.76
77702;BME280;66868;42.708;23.404;2023-03-24T03:59:36;95222.53;;;6.35;84.89
77702;BME280;66868;42.708;23.404;2023-03-24T04:10:17;95227.09;;;6.26;85.71
77702;BME280;66868;42.708;23.404;2023-03-24T04:13:12;95226.28;;;6.25;85.54
77702;BME280;66868;42.708;23.404;2023-03-24T04:16:10;95224.78;;;6.21;84.61
77702;BME280;66868;42.708;23.404;2023-03-24T04:26:48;95226.63;;;5.96;83.95
77702;BME280;66868;42.708;23.404;2023-03-24T04:32:12;95230.88;;;5.94;85.25
77702;BME280;66868;42.708;23.404;2023-03-24T04:34:49;95238.44;;;5.94;85.24
77702;BME280;66868;42.708;23.404;2023-03-24T04:37:22;95242.06;;;5.87;85.71
77702;BME280;66868;42.708;23.404;2023-03-24T04:39:49;95245.31;;;5.89;85.75
77702;BME280;66868;42.708;23.404;2023-03-24T04:42:27;95231.34;;;5.82;86.15
77702;BME280;66868;42.708;23.404;2023-03-24T04:44:55;95237.19;;;5.82;86.13
77702;BME280;66868;42.708;23.404;2023-03-24T04:47:25;95245.28;;;5.90;86.36
77702;BME280;66868;42.708;23.404;2023-03-24T04:50:02;95240.38;;;5.86;86.30
77702;BME280;66868;42.708;23.404;2023-03-24T04:52:28;95244.81;;;5.79;85.74
77702;BME280;66868;42.708;23.404;2023-03-24T04:54:53;95262.22;;;5.84;86.25
77702;BME280;66868;42.708;23.404;2023-03-24T04:57:19;95254.94;;;5.77;86.52
77702;BME280;66868;42.708;23.404;2023-03-24T04:59:45;95269.22;;;5.75;85.88
77702;BME280;66868;42.708;23.404;2023-03-24T05:02:10;95268.53;;;5.72;86.14
77702;BME280;66868;42.708;23.404;2023-03-24T05:04:35;95254.69;;;5.62;86.98
77702;BME280;66868;42.708;23.404;2023-03-24T05:07:02;95259.97;;;5.77;87.06
77702;BME280;66868;42.708;23.404;2023-03-24T05:09:28;95247.44;;;5.76;87.39
77702;BME280;66868;42.708;23.404;2023-03-24T05:11:55;95263.78;;;5.88;87.45
77702;BME280;66868;42.708;23.404;2023-03-24T05:14:21;95266.94;;;5.93;87.23
77702;BME280;66868;42.708;23.404;2023-03-24T05:16:46;95273.47;;;5.97;86.65
77702;BME280;66868;42.708;23.404;2023-03-24T05:19:12;95267.53;;;5.99;86.72
77702;BME280;66868;42.708;23.404;2023-03-24T05:21:38;95268.09;;;6.06;87.14
77702;BME280;66868;42.708;23.404;2023-03-24T05:24:03;95269.63;;;6.10;87.89
77702;BME280;66868;42.708;23.404;2023-03-24T05:26:29;95274.53;;;6.13;87.81
77702;BME280;66868;42.708;23.404;2023-03-24T05:28:55;95274.75;;;6.07;87.20
77702;BME280;66868;42.708;23.404;2023-03-24T05:31:20;95275.00;;;6.01;87.94
77702;BME280;66868;42.708;23.404;2023-03-24T05:33:46;95280.75;;;6.04;88.18
77702;BME280;66868;42.708;23.404;2023-03-24T05:36:13;95277.28;;;6.07;87.71
77702;BME280;66868;42.708;23.404;2023-03-24T05:38:39;95280.66;;;6.06;88.07
77702;BME280;66868;42.708;23.404;2023-03-24T05:41:05;95285.06;;;6.22;88.45
77702;BME280;66868;42.708;23.404;2023-03-24T05:43:30;95280.59;;;6.29;87.92
77702;BME280;66868;42.708;23.404;2023-03-24T05:45:56;95271.47;;;6.27;87.70
77702;BME280;66868;42.708;23.404;2023-03-24T05:48:22;95280.00;;;6.44;87.91
77702;BME280;66868;42.708;23.404;2023-03-24T05:50:47;95278.47;;;6.40;88.28
77702;BME280;66868;42.708;23.404;2023-03-24T05:53:13;95270.94;;;6.40;87.97
77702;BME280;66868;42.708;23.404;2023-03-24T05:55:38;95268.19;;;6.46;87.20
77702;BME280;66868;42.708;23.404;2023-03-24T05:58:04;95286.16;;;6.57;87.40
77702;BME280;66868;42.708;23.404;2023-03-24T06:00:30;95284.19;;;6.65;87.32
77702;BME280;66868;42.708;23.404;2023-03-24T06:02:56;95291.34;;;6.75;86.67
77702;BME280;66868;42.708;23.404;2023-03-24T06:05:23;95272.09;;;6.74;86.76
77702;BME280;66868;42.708;23.404;2023-03-24T06:07:48;95291.72;;;6.86;86.92
77702;BME280;66868;42.708;23.404;2023-03-24T06:10:14;95285.53;;;6.73;87.85
77702;BME280;66868;42.708;23.404;2023-03-24T06:12:43;95238.06;;;6.45;87.32
77702;BME280;66868;42.708;23.404;2023-03-24T06:15:09;95267.94;;;6.73;87.12
77702;BME280;66868;42.708;23.404;2023-03-24T06:17:34;95290.78;;;6.88;86.92
77702;BME280;66868;42.708;23.404;2023-03-24T06:20:04;95277.38;;;6.88;86.61
77702;BME280;66868;42.708;23.404;2023-03-24T06:22:32;95276.22;;;6.95;87.04
77702;BME280;66868;42.708;23.404;2023-03-24T06:24:57;95288.13;;;7.12;87.15
77702;BME280;66868;42.708;23.404;2023-03-24T06:27:23;95286.91;;;7.20;87.37
77702;BME280;66868;42.708;23.404;2023-03-24T06:29:57;95221.53;;;6.80;86.58
77702;BME280;66868;42.708;23.404;2023-03-24T06:32:24;95281.06;;;7.20;86.92
77702;BME280;66868;42.708;23.404;2023-03-24T06:34:50;95291.56;;;7.29;86.88
77702;BME280;66868;42.708;23.404;2023-03-24T06:37:15;95303.59;;;7.41;86.76
77702;BME280;66868;42.708;23.404;2023-03-24T06:39:41;95299.03;;;7.49;86.24
77702;BME280;66868;42.708;23.404;2023-03-24T06:42:06;95302.88;;;7.58;86.41
77702;BME280;66868;42.708;23.404;2023-03-24T06:44:32;95290.97;;;7.62;86.49
77702;BME280;66868;42.708;23.404;2023-03-24T06:46:57;95305.31;;;7.78;86.59
77702;BME280;66868;42.708;23.404;2023-03-24T06:49:23;95302.47;;;7.86;85.32
77702;BME280;66868;42.708;23.404;2023-03-24T06:51:48;95292.31;;;7.87;85.49
77702;BME280;66868;42.708;23.404;2023-03-24T06:54:14;95298.50;;;7.99;86.65
77702;BME280;66868;42.708;23.404;2023-03-24T06:56:40;95304.91;;;8.06;87.43
77702;BME280;66868;42.708;23.404;2023-03-24T06:59:06;95289.34;;;8.15;87.33
77702;BME280;66868;42.708;23.404;2023-03-24T07:01:32;95266.06;;;8.10;86.42
77702;BME280;66868;42.708;23.404;2023-03-24T07:03:59;95283.00;;;8.25;85.75
77702;BME280;66868;42.708;23.404;2023-03-24T07:06:27;95300.69;;;8.42;85.47
77702;BME280;66868;42.708;23.404;2023-03-24T07:08:54;95301.47;;;8.45;84.79
77702;BME280;66868;42.708;23.404;2023-03-24T07:11:19;95310.69;;;8.63;84.26
77702;BME280;66868;42.708;23.404;2023-03-24T07:13:45;95308.75;;;8.68;83.41
77702;BME280;66868;42.708;23.404;2023-03-24T07:16:10;95314.31;;;8.74;83.99
77702;BME280;66868;42.708;23.404;2023-03-24T07:18:36;95308.97;;;8.80;83.38
77702;BME280;66868;42.708;23.404;2023-03-24T07:21:01;95312.91;;;8.86;83.73
77702;BME280;66868;42.708;23.404;2023-03-24T07:23:27;95304.34;;;8.88;83.56
77702;BME280;66868;42.708;23.404;2023-03-24T07:25:52;95319.16;;;8.96;83.48
77702;BME280;66868;42.708;23.404;2023-03-24T07:28:18;95312.81;;;9.05;83.06
77702;BME280;66868;42.708;23.404;2023-03-24T07:30:44;95313.84;;;9.18;83.00
77702;BME280;66868;42.708;23.404;2023-03-24T07:33:10;95323.19;;;9.33;82.39
77702;BME280;66868;42.708;23.404;2023-03-24T07:35:37;95316.69;;;9.45;81.09
77702;BME280;66868;42.708;23.404;2023-03-24T07:38:02;95312.06;;;9.53;80.92
77702;BME280;66868;42.708;23.404;2023-03-24T07:40:28;95312.00;;;9.54;80.95
77702;BME280;66868;42.708;23.404;2023-03-24T07:42:58;95297.81;;;9.52;80.10
77702;BME280;66868;42.708;23.404;2023-03-24T07:45:24;95306.75;;;9.57;81.12
77702;BME280;66868;42.708;23.404;2023-03-24T07:47:50;95292.41;;;9.58;81.36
77702;BME280;66868;42.708;23.404;2023-03-24T07:50:15;95304.03;;;9.77;80.10
77702;BME280;66868;42.708;23.404;2023-03-24T07:52:45;95299.63;;;9.81;80.25
77702;BME280;66868;42.708;23.404;2023-03-24T07:55:11;95284.97;;;9.88;79.72
77702;BME280;66868;42.708;23.404;2023-03-24T07:57:45;95295.88;;;10.04;80.41
77702;BME280;66868;42.708;23.404;2023-03-24T08:00:11;95304.72;;;10.12;80.22
77702;BME280;66868;42.708;23.404;2023-03-24T08:02:49;95296.81;;;10.18;80.82
77702;BME280;66868;42.708;23.404;2023-03-24T08:05:16;95200.00;;;9.69;79.99
77702;BME280;66868;42.708;23.404;2023-03-24T08:07:45;95274.41;;;10.27;80.21
77702;BME280;66868;42.708;23.404;2023-03-24T08:10:27;95274.66;;;10.38;80.20
77702;BME280;66868;42.708;23.404;2023-03-24T08:12:54;95290.78;;;10.51;79.36
77702;BME280;66868;42.708;23.404;2023-03-24T08:15:19;95276.16;;;10.56;80.32
77702;BME280;66868;42.708;23.404;2023-03-24T08:17:47;95272.78;;;10.71;81.24
77702;BME280;66868;42.708;23.404;2023-03-24T08:20:12;95289.84;;;10.97;80.13
77702;BME280;66868;42.708;23.404;2023-03-24T08:22:40;95287.53;;;11.08;79.46
77702;BME280;66868;42.708;23.404;2023-03-24T08:25:06;95278.00;;;11.12;78.13
77702;BME280;66868;42.708;23.404;2023-03-24T08:27:32;95267.25;;;11.08;78.09
77702;BME280;66868;42.708;23.404;2023-03-24T08:29:58;95276.84;;;11.18;77.31
77702;BME280;66868;42.708;23.404;2023-03-24T08:32:23;95262.28;;;11.21;76.48
77702;BME280;66868;42.708;23.404;2023-03-24T08:34:48;95272.34;;;11.37;76.56
77702;BME280;66868;42.708;23.404;2023-03-24T08:37:14;95264.34;;;11.43;76.30
77702;BME280;66868;42.708;23.404;2023-03-24T08:39:39;95265.53;;;11.51;75.79
77702;BME280;66868;42.708;23.404;2023-03-24T08:42:05;95250.78;;;11.58;76.92
77702;BME280;66868;42.708;23.404;2023-03-24T08:44:30;95236.38;;;11.59;76.09
77702;BME280;66868;42.708;23.404;2023-03-24T08:46:56;95246.59;;;11.71;76.19
77702;BME280;66868;42.708;23.404;2023-03-24T08:49:21;95249.13;;;11.85;75.58
77702;BME280;66868;42.708;23.404;2023-03-24T08:51:46;95236.44;;;11.85;74.71
77702;BME280;66868;42.708;23.404;2023-03-24T08:54:12;95244.75;;;12.02;74.07
77702;BME280;66868;42.708;23.404;2023-03-24T08:56:38;95247.63;;;12.10;73.37
77702;BME280;66868;42.708;23.404;2023-03-24T08:59:06;95242.16;;;12.16;73.80
77702;BME280;66868;42.708;23.404;2023-03-24T09:01:32;95215.16;;;12.15;73.25
77702;BME280;66868;42.708;23.404;2023-03-24T09:04:04;95228.38;;;12.20;72.77
77702;BME280;66868;42.708;23.404;2023-03-24T09:06:30;95231.03;;;12.31;72.52
77702;BME280;66868;42.708;23.404;2023-03-24T09:08:56;95142.78;;;11.82;72.32
77702;BME280;66868;42.708;23.404;2023-03-24T09:11:22;95223.13;;;12.35;71.98
77702;BME280;66868;42.708;23.404;2023-03-24T09:13:48;95220.94;;;12.44;71.81
77702;BME280;66868;42.708;23.404;2023-03-24T09:16:14;95211.69;;;12.43;71.70
77702;BME280;66868;42.708;23.404;2023-03-24T09:18:40;95218.28;;;12.58;71.81
77702;BME280;66868;42.708;23.404;2023-03-24T09:21:07;95214.25;;;12.68;70.49
77702;BME280;66868;42.708;23.404;2023-03-24T09:23:33;95216.31;;;12.75;70.67
77702;BME280;66868;42.708;23.404;2023-03-24T09:25:58;95217.22;;;12.87;69.84
77702;BME280;66868;42.708;23.404;2023-03-24T09:28:24;95210.63;;;12.97;69.78
77702;BME280;66868;42.708;23.404;2023-03-24T09:30:54;95206.03;;;13.02;69.50
77702;BME280;66868;42.708;23.404;2023-03-24T09:33:20;95198.19;;;13.05;68.84
77702;BME280;66868;42.708;23.404;2023-03-24T09:35:52;95191.72;;;13.14;68.59
77702;BME280;66868;42.708;23.404;2023-03-24T09:38:18;95200.88;;;13.29;67.51
77702;BME280;66868;42.708;23.404;2023-03-24T09:40:43;95190.78;;;13.40;67.42
77702;BME280;66868;42.708;23.404;2023-03-24T09:43:48;95183.53;;;13.47;67.43
77702;BME280;66868;42.708;23.404;2023-03-24T09:46:33;95188.16;;;13.65;67.08
77702;BME280;66868;42.708;23.404;2023-03-24T09:48:59;95183.16;;;13.77;67.37
77702;BME280;66868;42.708;23.404;2023-03-24T09:51:27;95175.78;;;13.85;67.57
77702;BME280;66868;42.708;23.404;2023-03-24T09:56:32;95162.56;;;14.03;66.69
77702;BME280;66868;42.708;23.404;2023-03-24T09:59:14;95167.16;;;14.22;66.59
77702;BME280;66868;42.708;23.404;2023-03-24T10:01:40;95163.72;;;14.34;67.08
77702;BME280;66868;42.708;23.404;2023-03-24T10:04:13;95156.41;;;14.53;66.88
77702;BME280;66868;42.708;23.404;2023-03-24T10:06:40;95156.78;;;14.71;66.57
77702;BME280;66868;42.708;23.404;2023-03-24T10:11:47;95159.72;;;15.00;67.24
77702;BME280;66868;42.708;23.404;2023-03-24T10:19:43;95156.00;;;15.48;64.99
77702;BME280;66868;42.708;23.404;2023-03-24T10:30:19;95156.72;;;16.25;63.65
77702;BME280;66868;42.708;23.404;2023-03-24T10:32:45;95145.50;;;16.38;63.09
77702;BME280;66868;42.708;23.404;2023-03-24T10:35:29;95149.94;;;16.56;61.68
77702;BME280;66868;42.708;23.404;2023-03-24T10:37:59;95143.50;;;16.73;61.90
77702;BME280;66868;42.708;23.404;2023-03-24T10:40:29;95116.34;;;16.61;59.39
77702;BME280;66868;42.708;23.404;2023-03-24T10:42:57;95130.81;;;16.92;58.06
77702;BME280;66868;42.708;23.404;2023-03-24T10:45:34;95141.38;;;17.08;57.07
77702;BME280;66868;42.708;23.404;2023-03-24T10:48:01;95135.06;;;17.12;55.88
77702;BME280;66868;42.708;23.404;2023-03-24T10:50:30;95135.28;;;17.40;57.19
77702;BME280;66868;42.708;23.404;2023-03-24T10:52:56;95139.97;;;17.65;56.81
77702;BME280;66868;42.708;23.404;2023-03-24T10:55:35;95127.44;;;17.81;56.17
77702;BME280;66868;42.708;23.404;2023-03-24T10:58:11;95136.09;;;18.09;54.07
77702;BME280;66868;42.708;23.404;2023-03-24T11:00:38;95134.34;;;18.29;51.94
77702;BME280;66868;42.708;23.404;2023-03-24T11:03:15;95120.59;;;18.30;49.75
77702;BME280;66868;42.708;23.404;2023-03-24T11:05:45;95136.22;;;18.56;50.46
77702;BME280;66868;42.708;23.404;2023-03-24T11:08:37;95133.94;;;18.62;49.62
77702;BME280;66868;42.708;23.404;2023-03-24T11:13:38;95126.22;;;18.52;45.71
77702;BME280;66868;42.708;23.404;2023-03-24T11:16:14;95122.44;;;18.66;44.63
77702;BME280;66868;42.708;23.404;2023-03-24T11:18:59;95116.19;;;18.78;45.42
77702;BME280;66868;42.708;23.404;2023-03-24T11:21:27;95093.78;;;18.80;46.52
77702;BME280;66868;42.708;23.404;2023-03-24T11:23:56;95100.97;;;19.14;47.94
77702;BME280;66868;42.708;23.404;2023-03-24T11:26:32;95091.91;;;19.47;45.98
77702;BME280;66868;42.708;23.404;2023-03-24T11:29:02;95090.91;;;19.75;43.23
77702;BME280;66868;42.708;23.404;2023-03-24T11:31:30;95093.56;;;20.01;42.52
77702;BME280;66868;42.708;23.404;2023-03-24T11:33:59;95090.53;;;20.23;40.93
77702;BME280;66868;42.708;23.404;2023-03-24T11:39:11;95092.47;;;20.64;39.62
77702;BME280;66868;42.708;23.404;2023-03-24T11:41:40;95091.75;;;20.54;40.03
77702;BME280;66868;42.708;23.404;2023-03-24T11:44:20;95065.66;;;20.49;40.14
77702;BME280;66868;42.708;23.404;2023-03-24T11:46:50;95071.63;;;20.76;40.88
77702;BME280;66868;42.708;23.404;2023-03-24T11:49:20;95065.25;;;20.88;40.88
77702;BME280;66868;42.708;23.404;2023-03-24T11:51:50;95066.28;;;21.03;37.27
77702;BME280;66868;42.708;23.404;2023-03-24T11:54:19;95052.19;;;21.15;36.58
77702;BME280;66868;42.708;23.404;2023-03-24T11:56:48;95063.41;;;21.48;38.29
77702;BME280;66868;42.708;23.404;2023-03-24T12:02:26;95049.19;;;22.10;31.37
77702;BME280;66868;42.708;23.404;2023-03-24T12:10:46;95048.00;;;23.24;30.67
77702;BME280;66868;42.708;23.404;2023-03-24T12:13:16;95054.94;;;23.86;31.75
77702;BME280;66868;42.708;23.404;2023-03-24T12:20:54;95038.69;;;23.46;27.55
77702;BME280;66868;42.708;23.404;2023-03-24T12:23:41;95038.47;;;23.17;28.01
77702;BME280;66868;42.708;23.404;2023-03-24T12:26:22;95005.09;;;23.15;27.83
77702;BME280;66868;42.708;23.404;2023-03-24T12:42:45;95014.06;;;27.19;23.53
77702;BME280;66868;42.708;23.404;2023-03-24T12:58:46;95012.00;;;30.70;19.35
77702;BME280;66868;42.708;23.404;2023-03-24T13:04:20;95017.56;;;32.94;18.34
77702;BME280;66868;42.708;23.404;2023-03-24T13:06:49;95016.63;;;33.23;17.51
77702;BME280;66868;42.708;23.404;2023-03-24T13:12:54;95013.09;;;35.47;15.53
77702;BME280;66868;42.708;23.404;2023-03-24T13:20:29;95020.88;;;38.91;13.34
77702;BME280;66868;42.708;23.404;2023-03-24T13:22:58;95028.16;;;39.94;13.58
77702;BME280;66868;42.708;23.404;2023-03-24T13:28:10;95016.72;;;40.95;11.39
77702;BME280;66868;42.708;23.404;2023-03-24T13:30:40;95025.16;;;41.02;10.99
77702;BME280;66868;42.708;23.404;2023-03-24T13:33:13;95023.75;;;41.33;11.28
77702;BME280;66868;42.708;23.404;2023-03-24T13:36:15;95020.97;;;40.96;10.90
77702;BME280;66868;42.708;23.404;2023-03-24T13:38:55;95016.78;;;42.82;10.73
77702;BME280;66868;42.708;23.404;2023-03-24T13:41:23;95014.88;;;44.36;10.37
77702;BME280;66868;42.708;23.404;2023-03-24T13:44:00;95020.50;;;45.76;9.74
77702;BME280;66868;42.708;23.404;2023-03-24T13:46:27;95025.25;;;46.13;8.99
77702;BME280;66868;42.708;23.404;2023-03-24T13:48:54;95026.69;;;46.02;8.87
77702;BME280;66868;42.708;23.404;2023-03-24T13:51:25;95020.22;;;45.86;8.70
77702;BME280;66868;42.708;23.404;2023-03-24T14:01:42;95008.38;;;46.64;8.17
77702;BME280;66868;42.708;23.404;2023-03-24T14:06:50;94996.38;;;45.41;8.06
77702;BME280;66868;42.708;23.404;2023-03-24T14:09:20;94984.75;;;45.46;8.67
77702;BME280;66868;42.708;23.404;2023-03-24T14:12:14;94994.22;;;46.12;8.84
77702;BME280;66868;42.708;23.404;2023-03-24T14:14:35;94987.44;;;45.71;8.51
77702;BME280;66868;42.708;23.404;2023-03-24T14:22:32;94989.56;;;46.73;8.02
77702;BME280;66868;42.708;23.404;2023-03-24T14:27:45;94983.00;;;46.62;8.06
77702;BME280;66868;42.708;23.404;2023-03-24T14:32:48;94982.47;;;47.44;8.05
77702;BME280;66868;42.708;23.404;2023-03-24T14:37:51;94991.25;;;48.93;8.26
77702;BME280;66868;42.708;23.404;2023-03-24T14:40:44;94985.16;;;48.60;8.23
77702;BME280;66868;42.708;23.404;2023-03-24T14:43:28;94985.44;;;48.91;7.95
77702;BME280;66868;42.708;23.404;2023-03-24T14:46:00;94984.22;;;48.44;8.13
77702;BME280;66868;42.708;23.404;2023-03-24T14:50:53;94963.66;;;46.22;9.05
77702;BME280;66868;42.708;23.404;2023-03-24T14:53:19;94958.56;;;44.02;9.72
77702;BME280;66868;42.708;23.404;2023-03-24T14:55:46;94942.91;;;41.72;10.85
77702;BME280;66868;42.708;23.404;2023-03-24T14:58:25;94935.66;;;39.38;12.16
77702;BME280;66868;42.708;23.404;2023-03-24T15:00:54;94922.09;;;37.24;12.91
77702;BME280;66868;42.708;23.404;2023-03-24T15:08:38;94898.94;;;32.80;15.86
77702;BME280;66868;42.708;23.404;2023-03-24T15:11:05;94890.88;;;31.77;16.32
77702;BME280;66868;42.708;23.404;2023-03-24T15:13:47;94879.16;;;30.79;17.30
77702;BME280;66868;42.708;23.404;2023-03-24T15:16:23;94869.63;;;29.87;18.39
77702;BME280;66868;42.708;23.404;2023-03-24T15:18:55;94888.41;;;29.46;18.97
77702;BME280;66868;42.708;23.404;2023-03-24T15:23:48;94874.59;;;28.49;20.21
77702;BME280;66868;42.708;23.404;2023-03-24T15:26:14;94869.69;;;28.02;20.77
77702;BME280;66868;42.708;23.404;2023-03-24T15:28:40;94879.69;;;27.65;20.87
77702;BME280;66868;42.708;23.404;2023-03-24T15:31:13;94868.84;;;27.16;21.70
77702;BME280;66868;42.708;23.404;2023-03-24T15:33:40;94875.50;;;26.77;21.66
77702;BME280;66868;42.708;23.404;2023-03-24T15:36:14;94875.66;;;26.22;22.76
77702;BME280;66868;42.708;23.404;2023-03-24T15:38:45;94871.78;;;25.83;24.14
77702;BME280;66868;42.708;23.404;2023-03-24T15:41:12;94869.78;;;25.36;25.11
77702;BME280;66868;42.708;23.404;2023-03-24T15:43:45;94862.63;;;24.81;26.58
77702;BME280;66868;42.708;23.404;2023-03-24T15:46:28;94857.50;;;24.52;27.29
77702;BME280;66868;42.708;23.404;2023-03-24T15:48:56;94858.69;;;24.35;27.59
77702;BME280;66868;42.708;23.404;2023-03-24T15:51:45;94860.19;;;24.14;27.72
77702;BME280;66868;42.708;23.404;2023-03-24T15:54:43;94852.81;;;23.59;28.15
77702;BME280;66868;42.708;23.404;2023-03-24T15:57:17;94869.25;;;23.44;28.34
77702;BME280;66868;42.708;23.404;2023-03-24T16:02:24;94860.44;;;23.15;28.73
77702;BME280;66868;42.708;23.404;2023-03-24T16:04:55;94855.38;;;22.99;29.20